Latest Weather Observations for Hopetoun Airport

IDV60801

Issued at 8:02 pm EST Saturday 25 June 2016 (issued every 30 minutes, with the page automatically refreshed every 10 minutes)

About weather observations | Map of weather stations | Latest weather observations for VIC | Other Formats
Station Details ID: 077010 Name: HOPETOUN AIRPORT Lat: -35.72 Lon: 142.36 Height: 77.3 m
Data from the previous 72 hours. | See also: Recent months at Hopetoun Airport
Date/Time
EST
Temp
°C
App
Temp
°C
Dew
Point
°C
Rel
Hum
%
Delta-T
°C
Wind Press
QNH
hPa
Press
MSL
hPa
Rain since
9am
mm
Dir  Spd
km/h
Gust
km/h
Spd
kts
Gust
kts
25/08:00pm 5.3 3.1 3.3 87 0.8 NE 4 6 2 3 1023.6 1023.7 0.0
25/07:30pm 5.4 2.8 3.1 85 0.9 NE 6 6 3 3 1023.4 1023.5 0.0
25/07:00pm 5.4 2.8 3.1 85 0.9 ENE 6 6 3 3 1023.2 1023.3 0.0
25/06:30pm 5.7 3.1 3.4 85 1.0 NE 6 6 3 3 1023.2 1023.3 0.0
25/06:00pm 6.6 3.9 3.8 82 1.2 ENE 7 9 4 5 1023.0 1023.1 0.0
25/05:30pm 8.3 5.8 3.8 73 2.0 NE 6 6 3 3 1023.0 1023.1 0.0
25/05:00pm 9.7 7.7 4.3 69 2.4 NE 4 4 2 2 1023.1 1023.2 0.0
25/04:30pm 11.7 10.2 3.0 55 3.8 CALM 0 0 0 0 1023.2 1023.3 0.0
25/04:00pm 11.9 10.5 3.4 56 3.8 CALM 0 0 0 0 1023.3 1023.4 0.0
25/03:30pm 10.8 9.0 3.4 60 3.3 SSW 2 4 1 2 1023.3 1023.4 0.0
25/03:00pm 11.0 8.8 3.5 60 3.3 S 4 9 2 5 1023.4 1023.5 0.0
25/02:30pm 11.4 9.2 3.2 57 3.6 S 4 7 2 4 1023.5 1023.6 0.0
25/02:00pm 11.4 9.0 4.2 61 3.2 SW 6 11 3 6 1023.8 1023.9 0.0
25/01:30pm 10.5 8.0 3.8 63 3.0 SW 6 9 3 5 1024.1 1024.2 0.0
25/01:00pm 10.9 8.5 4.4 64 2.9 WSW 6 9 3 5 1024.6 1024.7 0.0
25/12:30pm 10.4 7.8 4.3 66 2.7 W 7 11 4 6 1024.9 1025.0 0.0
25/12:00pm 9.5 7.2 4.7 72 2.1 W 6 9 3 5 1025.3 1025.4 0.0
25/11:30am 8.9 6.4 4.5 74 2.0 W 7 9 4 5 1025.8 1026.0 0.0
25/11:00am 7.8 5.5 4.6 80 1.4 W 6 9 3 5 1026.0 1026.2 0.0
25/10:30am 7.1 5.5 4.4 83 1.2 WNW 2 6 1 3 1025.9 1026.1 0.0
25/10:00am 4.5 3.0 3.2 91 0.5 CALM 0 0 0 0 1025.7 1025.9 0.0
25/09:30am 2.7 0.7 2.1 96 0.2 WNW 2 4 1 2 1025.4 1025.5 0.0
25/09:00am 1.3 -1.3 0.9 97 0.1 NNW 4 6 2 3 1025.2 1025.3 0.0
25/08:30am 0.0 -3.2 -0.4 97 0.1 N 6 6 3 3 1025.0 1025.1 0.0
25/08:00am -1.5 -4.2 -2.1 96 0.1 NNW 2 4 1 2 1024.7 1024.8 0.0
25/07:30am -1.6 -4.6 -2.2 96 0.1 NW 4 6 2 3 1024.4 1024.5 0.0
25/07:00am -1.3 -4.3 -1.9 96 0.1 NW 4 6 2 3 1024.3 1024.4 0.0
25/06:30am -1.1 -4.6 -1.7 96 0.2 NW 7 9 4 5 1023.9 1024.0 0.0
25/06:00am -1.1 -4.6 -1.7 96 0.2 NW 7 7 4 4 1023.5 1023.6 0.0
25/05:30am -0.7 -3.6 -1.3 96 0.2 WSW 4 4 2 2 1023.2 1023.3 0.0
25/05:00am -1.0 -3.2 -1.7 95 0.2 CALM 0 0 0 0 1023.0 1023.1 0.0
25/04:30am -0.2 -3.1 -0.8 96 0.2 WSW 4 6 2 3 1023.0 1023.1 0.0
25/04:00am -0.4 -3.3 -1.0 96 0.2 W 4 6 2 3 1022.7 1022.8 0.0
25/03:30am -0.1 -3.5 -0.7 96 0.2 W 7 9 4 5 1022.7 1022.8 0.0
25/03:00am -0.3 -3.2 -0.9 96 0.2 W 4 4 2 2 1022.5 1022.6 0.0
25/02:30am 0.0 -3.2 -0.7 95 0.3 WNW 6 7 3 4 1022.5 1022.6 0.0
25/02:00am 0.0 -3.2 -0.7 95 0.2 W 6 6 3 3 1022.3 1022.4 0.0
25/01:30am 1.0 -2.3 0.3 95 0.3 W 7 7 4 4 1022.1 1022.2 0.0
25/01:00am 1.2 -1.8 0.5 95 0.3 W 6 7 3 4 1022.2 1022.3 0.0
25/12:30am 1.3 -2.3 0.6 95 0.3 W 9 9 5 5 1022.0 1022.1 0.0
25/12:00am 2.1 -2.2 1.2 94 0.3 W 13 15 7 8 1021.9 1022.0 0.0
 
Date/Time
EST
Temp
°C
App
Temp
°C
Dew
Point
°C
Rel
Hum
%
Delta-T
°C
Wind Press
QNH
hPa
Press
MSL
hPa
Rain since
9am
mm
Dir  Spd
km/h
Gust
km/h
Spd
kts
Gust
kts
24/11:30pm 2.3 -1.6 1.3 93 0.4 W 11 13 6 7 1021.8 1021.9 0.0
24/11:00pm 2.6 -1.3 1.4 92 0.5 W 11 15 6 8 1021.6 1021.7 0.0
24/10:30pm 2.9 -1.3 1.7 92 0.5 W 13 15 7 8 1021.4 1021.5 0.0
24/10:00pm 2.5 -0.6 1.3 92 0.5 W 7 9 4 5 1021.0 1021.1 0.0
24/09:30pm 2.7 -0.4 1.2 90 0.6 W 7 9 4 5 1020.9 1021.0 0.0
24/09:00pm 3.7 0.0 2.1 89 0.6 WSW 11 13 6 7 1020.4 1020.5 0.0
24/08:30pm 4.2 0.1 2.2 87 0.8 WSW 13 17 7 9 1019.9 1020.0 0.0
24/08:00pm 4.5 0.4 2.2 85 0.9 W 13 15 7 8 1019.4 1019.5 0.0
24/07:30pm 4.9 0.9 2.8 86 0.9 W 13 17 7 9 1018.8 1018.9 0.0
24/07:00pm 5.3 1.6 2.5 82 1.1 SW 11 15 6 8 1018.2 1018.3 0.0
24/06:30pm 6.3 1.5 2.6 77 1.5 WSW 17 20 9 11 1017.8 1017.9 0.0
24/06:00pm 6.4 2.5 3.4 81 1.3 SW 13 17 7 9 1017.2 1017.3 0.0
24/05:30pm 7.0 1.8 3.3 77 1.6 SW 20 30 11 16 1016.5 1016.6 0.0
24/05:00pm 9.1 3.0 2.7 64 2.7 WSW 24 32 13 17 1015.8 1016.0 0.0
24/04:30pm 9.2 2.0 2.8 64 2.7 WSW 30 41 16 22 1015.0 1015.2 0.0
24/04:00pm 9.7 3.2 2.6 61 3.0 SW 26 37 14 20 1014.4 1014.5 0.0
24/03:30pm 9.6 2.0 2.9 63 2.9 SW 32 44 17 24 1014.1 1014.2 0.0
24/03:00pm 9.5 0.4 1.9 59 3.2 SW 39 52 21 28 1013.6 1013.7 0.0
24/02:30pm 9.2 0.7 3.2 66 2.6 WSW 37 46 20 25 1013.3 1013.4 0.0
24/02:00pm 9.1 -0.1 3.7 69 2.4 WSW 41 50 22 27 1012.9 1013.0 0.0
24/01:30pm 10.0 1.4 4.8 70 2.3 SW 39 48 21 26 1012.8 1012.9 0.0
24/01:00pm 9.8 0.6 3.5 65 2.8 WSW 41 54 22 29 1012.4 1012.5 0.0
24/12:30pm 9.0 0.2 3.8 70 2.3 WSW 39 50 21 27 1012.2 1012.3 0.0
24/12:00pm 9.3 0.9 3.9 69 2.4 WSW 37 46 20 25 1012.0 1012.1 0.0
24/11:30am 8.8 0.8 4.0 72 2.1 WSW 35 46 19 25 1011.7 1011.8 0.0
24/11:00am 8.2 0.7 4.2 76 1.8 WSW 33 43 18 23 1011.3 1011.4 0.0
24/10:30am 7.4 0.8 4.2 80 1.4 WSW 28 33 15 18 1010.8 1010.9 0.0
24/10:00am 6.5 0.2 3.8 83 1.2 W 26 32 14 17 1010.2 1010.3 0.0
24/09:30am 5.8 -0.2 3.6 86 0.9 W 24 35 13 19 1009.5 1009.6 0.0
24/09:00am 5.6 -0.3 3.9 89 0.7 WNW 24 32 13 17 1008.8 1008.9 6.2
24/08:30am 4.9 -0.7 3.7 92 0.5 WNW 22 28 12 15 1008.3 1008.4 6.2
24/08:00am 4.6 -0.6 3.4 92 0.5 W 20 24 11 13 1007.4 1007.5 6.2
24/07:30am 5.1 -0.4 3.8 91 0.5 W 22 30 12 16 1006.6 1006.7 6.2
24/07:00am 5.5 -0.3 4.3 92 0.5 W 24 30 13 16 1005.9 1006.0 6.2
24/06:30am 5.8 -0.7 4.6 92 0.5 W 28 35 15 19 1005.5 1005.6 6.2
24/06:00am 5.9 -1.0 4.7 92 0.5 WNW 30 43 16 23 1004.9 1005.0 6.0
24/05:30am 5.9 0.9 4.5 91 0.6 WNW 20 28 11 15 1004.5 1004.6 5.8
24/05:00am 5.8 0.9 4.3 90 0.6 WNW 19 24 10 13 1004.3 1004.4 5.8
24/04:30am 5.4 0.3 4.2 92 0.5 WNW 20 26 11 14 1003.9 1003.9 5.8
24/04:00am 4.8 0.2 3.8 93 0.4 NW 17 20 9 11 1003.8 1003.8 5.8
24/03:30am 5.0 -0.2 3.5 90 0.6 WNW 20 24 11 13 1003.7 1003.7 5.8
24/03:00am 5.3 0.2 4.3 93 0.4 WNW 20 24 11 13 1003.5 1003.5 5.8
24/02:30am 6.0 1.2 4.6 91 0.6 WNW 19 28 10 15 1003.5 1003.5 5.8
24/02:00am 6.6 1.8 5.7 94 0.4 WNW 20 28 11 15 1003.6 1003.6 5.8
24/01:30am 6.7 2.9 5.8 94 0.4 WNW 15 19 8 10 1003.4 1003.4 5.6
24/01:00am 6.8 2.0 5.4 91 0.6 W 20 28 11 15 1003.3 1003.3 5.6
24/12:30am 7.1 0.5 5.9 92 0.5 WNW 30 39 16 21 1003.3 1003.3 5.6
24/12:23am 7.3 1.9 6.2 93 0.5 WNW 24 37 13 20 1003.5 1003.5 5.4
24/12:00am 6.9 3.1 5.8 93 0.5 NW 15 19 8 10 1003.2 1003.2 5.2
 
Date/Time
EST
Temp
°C
App
Temp
°C
Dew
Point
°C
Rel
Hum
%
Delta-T
°C
Wind Press
QNH
hPa
Press
MSL
hPa
Rain since
9am
mm
Dir  Spd
km/h
Gust
km/h
Spd
kts
Gust
kts
23/11:30pm 7.0 2.4 5.8 92 0.5 NW 19 22 10 12 1003.3 1003.3 5.2
23/11:00pm 7.5 2.9 6.6 94 0.4 NW 20 26 11 14 1003.0 1003.0 5.2
23/10:30pm 7.4 3.4 6.7 95 0.3 NW 17 19 9 10 1002.9 1002.9 5.2
23/10:00pm 7.6 3.3 6.9 95 0.3 WNW 19 24 10 13 1002.9 1002.9 5.2
23/09:30pm 8.0 4.1 7.1 94 0.4 WNW 17 20 9 11 1002.4 1002.5 5.2
23/09:00pm 8.5 5.0 7.4 93 0.5 W 15 20 8 11 1002.3 1002.4 5.0
23/08:30pm 8.5 3.0 7.6 94 0.4 N 26 35 14 19 1000.8 1000.9 5.0
23/08:00pm 8.3 4.4 7.2 93 0.5 NW 17 20 9 11 1002.6 1002.7 5.0
23/07:30pm 8.5 5.4 7.3 92 0.6 NW 13 15 7 8 1002.1 1002.2 5.0
23/07:00pm 8.7 3.6 7.8 94 0.4 W 24 32 13 17 1002.6 1002.7 4.6
23/06:30pm 9.1 4.9 8.2 94 0.4 W 20 30 11 16 1001.9 1002.0 2.8
23/06:00pm 9.2 4.2 8.0 92 0.6 WNW 24 30 13 16 1001.3 1001.4 2.2
23/05:30pm 9.4 4.0 8.0 91 0.7 W 26 37 14 20 1000.8 1000.9 1.8
23/05:00pm 9.8 3.7 8.4 91 0.7 WNW 30 37 16 20 1000.8 1000.9 1.0
23/04:30pm 10.1 1.5 8.0 87 1.0 W 43 57 23 31 1000.4 1000.5 0.4
23/04:24pm 11.7 3.4 7.8 77 1.9 WNW 41 57 22 31 1000.0 1000.1 0.2
23/04:00pm 14.1 6.9 5.7 57 4.0 NW 33 54 18 29 999.1 999.2 0.0
23/03:30pm 14.2 6.9 5.6 56 4.1 NW 33 44 18 24 999.4 999.5 0.0
23/03:00pm 14.3 5.5 5.4 55 4.2 NW 41 57 22 31 999.6 999.7 0.0
23/02:30pm 15.0 6.7 6.0 55 4.3 NNW 39 61 21 33 999.9 1000.0 0.0
23/02:00pm 14.7 6.0 6.0 56 4.2 NNW 41 56 22 30 1000.5 1000.6 0.0
23/01:30pm 14.6 5.1 6.7 59 3.8 NW 46 57 25 31 1001.0 1001.1 0.0
23/01:00pm 14.4 5.2 6.5 59 3.8 NNW 44 57 24 31 1001.7 1001.8 0.0
23/12:30pm 14.1 6.1 7.6 65 3.2 NNW 39 54 21 29 1002.4 1002.5 0.0
23/12:00pm 14.0 6.1 7.8 66 3.1 NW 39 48 21 26 1003.2 1003.2 0.0
23/11:30am 13.7 5.8 7.9 68 2.9 NNW 39 52 21 28 1003.6 1003.6 0.0
23/11:00am 13.2 6.5 8.3 72 2.5 NNW 33 43 18 23 1004.4 1004.5 0.0
23/10:30am 12.1 5.3 7.6 74 2.2 NNW 33 44 18 24 1004.8 1004.9 0.0
23/10:00am 11.4 5.5 7.5 77 1.9 NNW 28 37 15 20 1005.0 1005.1 0.0
23/09:30am 10.1 4.5 7.2 82 1.4 NNW 26 33 14 18 1005.5 1005.6 0.0
23/09:00am 9.4 4.6 7.2 86 1.0 N 22 30 12 16 1005.7 1005.8 0.0
23/08:30am 8.5 3.5 6.6 88 0.9 N 22 30 12 16 1006.2 1006.3 0.0
23/08:00am 8.6 3.7 6.7 88 0.9 NNW 22 28 12 15 1006.3 1006.4 0.0
23/07:30am 8.2 3.6 6.3 88 0.9 NNW 20 28 11 15 1006.2 1006.3 0.0
23/07:00am 8.6 3.7 6.7 88 0.9 NNW 22 28 12 15 1006.4 1006.5 0.0
23/06:30am 8.8 3.9 6.8 87 0.9 NNW 22 32 12 17 1006.2 1006.3 0.0
23/06:00am 8.5 4.2 6.8 89 0.8 N 19 22 10 12 1006.2 1006.3 0.0
23/05:30am 9.0 4.7 7.0 87 0.9 NNW 19 24 10 13 1006.3 1006.4 0.0
23/05:00am 9.4 4.1 6.8 84 1.2 NNW 24 32 13 17 1006.4 1006.5 0.0
23/04:30am 9.6 4.3 7.0 84 1.2 N 24 32 13 17 1006.5 1006.6 0.0
23/04:00am 9.1 5.6 7.1 87 0.9 N 15 20 8 11 1007.1 1007.2 0.0
23/03:30am 8.3 5.1 6.9 91 0.7 NNW 13 17 7 9 1007.7 1007.8 0.0
23/03:00am 7.7 4.8 6.3 91 0.6 NNW 11 15 6 8 1008.1 1008.2 0.0
23/02:30am 7.8 4.5 6.4 91 0.6 N 13 17 7 9 1008.1 1008.2 0.0
23/02:00am 7.7 4.7 6.2 90 0.7 NNW 11 15 6 8 1008.5 1008.6 0.0
23/01:30am 8.2 4.9 6.5 89 0.8 NNW 13 17 7 9 1008.8 1008.9 0.0
23/01:00am 8.3 4.6 6.3 87 0.9 NNW 15 17 8 9 1009.0 1009.1 0.0
23/12:30am 9.5 5.6 6.9 84 1.2 NW 17 22 9 12 1009.4 1009.5 0.0
23/12:00am 9.7 5.8 7.1 84 1.2 NNW 17 22 9 12 1009.6 1009.7 0.0
 
Date/Time
EST
Temp
°C
App
Temp
°C
Dew
Point
°C
Rel
Hum
%
Delta-T
°C
Wind Press
QNH
hPa
Press
MSL
hPa
Rain since
9am
mm
Dir  Spd
km/h
Gust
km/h
Spd
kts
Gust
kts
22/11:30pm 9.6 5.3 7.0 84 1.2 NNW 19 22 10 12 1009.7 1009.8 0.0
22/11:00pm 8.6 4.2 6.6 87 0.9 NNW 19 22 10 12 1010.0 1010.1 0.0
22/10:30pm 8.0 4.6 6.1 88 0.9 NNW 13 17 7 9 1010.1 1010.2 0.0
22/10:00pm 7.4 4.3 5.7 89 0.8 NNW 11 13 6 7 1010.0 1010.1 0.0
22/09:30pm 8.4 4.7 6.2 86 1.0 NNW 15 17 8 9 1010.0 1010.1 0.0
22/09:00pm 8.6 4.9 6.4 86 1.0 NNW 15 19 8 10 1010.0 1010.1 0.0
22/08:30pm 8.8 5.5 6.6 86 1.0 NNW 13 15 7 8 1010.0 1010.1 0.0

Other Formats:

Comma delimited format used in spreadsheet applications
http://www.bom.gov.au/fwo/IDV60801/IDV60801.94838.axf

JavaScript Object Notation format (JSON) in row-major order
http://www.bom.gov.au/fwo/IDV60801/IDV60801.94838.json